Time;durP1;ratioP1;P1;durP2;ratioP2;P2;SDS_P1;SDS_P2;PMS_P1;PMS_P2;Temp;Humidity;BMP_temperature;BMP_pressure;BME280_temperature;BME280_humidity;BME280_pressure;Samples;Min_cycle;Max_cycle;Signal;HPM_P1;HPM_P2
2022/03/21 00:02:14;;;;;;;27.52;15.48;;;6.50;99.90;;;;;;5139088;27;20137;-76
2022/03/21 00:04:40;;;;;;;31.33;16.60;;;6.50;99.90;;;;;;5137952;27;20275;-76
2022/03/21 00:07:05;;;;;;;30.45;16.90;;;6.50;99.90;;;;;;5138556;27;20043;-76
2022/03/21 00:09:31;;;;;;;27.48;15.27;;;6.40;99.90;;;;;;5157398;27;20092;-76
2022/03/21 00:11:57;;;;;;;24.33;15.18;;;6.50;99.90;;;;;;5157558;27;20054;-76
2022/03/21 00:14:22;;;;;;;29.55;16.70;;;6.50;99.90;;;;;;5157228;27;20046;-76
2022/03/21 00:16:48;;;;;;;27.02;15.73;;;6.50;99.90;;;;;;5121791;27;20043;-76
2022/03/21 00:19:14;;;;;;;28.25;16.13;;;6.50;99.90;;;;;;5157299;27;20432;-76
2022/03/21 00:21:40;;;;;;;27.58;15.30;;;6.50;99.90;;;;;;5156897;27;20046;-76
2022/03/21 00:24:05;;;;;;;28.83;15.65;;;6.40;99.90;;;;;;5157067;27;20047;-76
2022/03/21 00:26:31;;;;;;;31.13;17.00;;;6.40;99.90;;;;;;5156786;27;20043;-76
2022/03/21 00:28:57;;;;;;;27.10;15.57;;;6.40;99.90;;;;;;5138517;27;20046;-76
2022/03/21 00:31:23;;;;;;;30.27;15.55;;;6.40;99.90;;;;;;5157185;27;20039;-76
2022/03/21 00:33:49;;;;;;;24.38;14.85;;;6.40;99.90;;;;;;5157119;27;20042;-76
2022/03/21 00:36:15;;;;;;;26.67;14.43;;;6.40;99.90;;;;;;5156462;27;20093;-76
2022/03/21 00:38:43;;;;;;;29.77;16.27;;;6.40;99.90;;;;;;5156774;27;20081;-76
2022/03/21 00:41:09;;;;;;;26.83;15.32;;;6.30;99.90;;;;;;5156750;27;20050;-76
2022/03/21 00:43:34;;;;;;;30.00;16.05;;;6.40;99.90;;;;;;5156607;27;20482;-76
2022/03/21 00:46:01;;;;;;;30.90;15.43;;;6.30;99.90;;;;;;5156690;27;20435;-76
2022/03/21 00:48:28;;;;;;;26.58;16.05;;;6.40;99.90;;;;;;5156664;27;20047;-76
2022/03/21 00:50:54;;;;;;;26.45;16.65;;;6.40;99.90;;;;;;5156511;27;20126;-76
2022/03/21 00:53:21;;;;;;;28.70;16.58;;;6.30;99.90;;;;;;5156458;27;20047;-76
2022/03/21 00:55:48;;;;;;;29.33;16.63;;;6.30;99.90;;;;;;5156358;27;20035;-76
2022/03/21 00:58:14;;;;;;;;;;;6.30;99.90;;;;;;5139026;27;20043;-76
2022/03/21 01:00:41;;;;;;;27.80;15.05;;;6.30;99.90;;;;;;5156364;27;20039;-76
2022/03/21 01:03:09;;;;;;;30.70;15.82;;;6.30;99.90;;;;;;5156284;27;20470;-76
2022/03/21 01:05:35;;;;;;;22.92;13.90;;;6.30;99.90;;;;;;5156313;27;20130;-76
2022/03/21 01:08:04;;;;;;;30.33;15.80;;;6.20;99.90;;;;;;5156170;27;20557;-76
2022/03/21 01:10:31;;;;;;;27.75;15.63;;;6.30;99.90;;;;;;5155824;27;20504;-76
2022/03/21 01:12:57;;;;;;;25.83;15.55;;;6.30;99.90;;;;;;5156088;27;20042;-76
2022/03/21 01:15:26;;;;;;;26.45;14.80;;;6.30;99.90;;;;;;5136912;27;20061;-76
2022/03/21 01:17:52;;;;;;;27.00;15.02;;;6.30;99.90;;;;;;5156026;27;20084;-76
2022/03/21 01:20:20;;;;;;;26.75;15.30;;;6.30;99.90;;;;;;5155677;27;20046;-76
2022/03/21 01:22:47;;;;;;;28.13;15.13;;;6.20;99.90;;;;;;5156368;27;20054;-76
2022/03/21 01:25:13;;;;;;;30.00;16.13;;;6.20;99.90;;;;;;5155677;27;20475;-76
2022/03/21 01:27:40;;;;;;;27.65;15.68;;;6.20;99.90;;;;;;5155844;27;20084;-76
2022/03/21 01:30:08;;;;;;;27.33;15.38;;;6.20;99.90;;;;;;5155788;27;20046;-76
2022/03/21 01:32:34;;;;;;;29.58;16.45;;;6.20;99.90;;;;;;5155766;27;20034;-76
2022/03/21 01:35:01;;;;;;;28.67;16.90;;;6.20;99.90;;;;;;5155550;27;20046;-76
2022/03/21 01:37:26;;;;;;;26.83;16.10;;;6.20;99.90;;;;;;5137465;27;20051;-76
2022/03/21 01:39:52;;;;;;;28.83;16.33;;;6.20;99.90;;;;;;5155608;27;20623;-76
2022/03/21 01:42:17;;;;;;;31.15;16.65;;;6.20;99.90;;;;;;5137374;27;20051;-76
2022/03/21 01:44:43;;;;;;;31.52;17.10;;;6.20;99.90;;;;;;5155605;27;20126;-76
2022/03/21 01:47:09;;;;;;;30.25;16.52;;;6.20;99.90;;;;;;5155556;27;20058;-76
2022/03/21 01:49:35;;;;;;;29.90;16.67;;;6.20;99.90;;;;;;5155520;27;20035;-76
2022/03/21 01:52:00;;;;;;;27.95;16.27;;;6.20;99.90;;;;;;5155514;27;20487;-76
2022/03/21 01:57:11;;;;;;;33.40;16.17;;;6.10;99.90;;;;;;5155445;27;20050;-76
2022/03/21 01:59:37;;;;;;;28.20;15.00;;;6.10;99.90;;;;;;5155373;27;20042;-76
2022/03/21 02:02:05;;;;;;;26.17;15.13;;;6.20;99.90;;;;;;5155374;27;20039;-76
2022/03/21 02:04:31;;;;;;;26.13;15.10;;;6.10;99.90;;;;;;5155333;27;20042;-76
2022/03/21 02:06:58;;;;;;;24.27;14.40;;;6.10;99.90;;;;;;5155578;27;20062;-76
2022/03/21 02:09:24;;;;;;;23.35;14.27;;;6.10;99.90;;;;;;5137238;27;20046;-76
2022/03/21 02:11:49;;;;;;;29.00;14.85;;;6.20;99.90;;;;;;5155264;27;20077;-76
2022/03/21 02:14:16;;;;;;;26.35;14.18;;;6.10;99.90;;;;;;5155351;27;20047;-76
2022/03/21 02:16:42;;;;;;;29.35;15.20;;;6.20;99.90;;;;;;5155196;27;20047;-76
2022/03/21 02:19:20;;;;;;;28.45;15.57;;;6.10;99.90;;;;;;5155229;27;20470;-76
2022/03/21 02:21:58;;;;;;;27.25;14.98;;;6.20;99.90;;;;;;5155181;27;20047;-76
2022/03/21 02:25:01;;;;;;;26.20;13.95;;;6.10;99.90;;;;;;5155056;27;20126;-76
2022/03/21 02:27:28;;;;;;;24.02;13.30;;;6.10;99.90;;;;;;5157600;27;20050;-76
2022/03/21 02:29:56;;;;;;;22.65;13.60;;;6.10;99.90;;;;;;5159337;27;20053;-76
2022/03/21 02:32:22;;;;;;;25.17;13.10;;;6.10;99.90;;;;;;5159150;27;20046;-76
2022/03/21 02:34:48;;;;;;;22.53;12.83;;;6.10;99.90;;;;;;5159141;27;20060;-76
2022/03/21 02:37:17;;;;;;;23.47;12.73;;;6.10;99.90;;;;;;5159184;27;20119;-76
2022/03/21 02:39:44;;;;;;;26.08;13.52;;;6.10;99.90;;;;;;5159083;27;20034;-76
2022/03/21 02:42:10;;;;;;;19.85;12.30;;;6.30;99.90;;;;;;5159074;27;20043;-76
2022/03/21 02:44:38;;;;;;;23.33;13.70;;;6.10;99.90;;;;;;5159083;27;20035;-76
2022/03/21 02:47:05;;;;;;;22.15;13.45;;;6.10;99.90;;;;;;5158621;27;20475;-76
2022/03/21 02:49:31;;;;;;;23.95;13.55;;;6.10;99.90;;;;;;5158952;27;20149;-76
2022/03/21 02:51:59;;;;;;;25.30;12.35;;;6.10;99.90;;;;;;5158965;27;20046;-76
2022/03/21 02:54:26;;;;;;;24.08;14.02;;;6.10;99.90;;;;;;5158666;27;20046;-76
2022/03/21 02:56:52;;;;;;;;;;;6.00;99.90;;;;;;5159167;27;20046;-76
2022/03/21 02:59:18;;;;;;;23.48;13.80;;;6.00;99.90;;;;;;5158452;27;19919;-76
2022/03/21 03:01:44;;;;;;;26.67;13.90;;;5.90;99.90;;;;;;5158580;27;20049;-76
2022/03/21 03:04:10;;;;;;;24.55;13.02;;;5.90;99.90;;;;;;5158695;27;20126;-76
2022/03/21 03:06:39;;;;;;;27.83;15.15;;;5.80;99.90;;;;;;5140391;27;20046;-76
2022/03/21 03:09:06;;;;;;;29.13;14.85;;;5.80;99.90;;;;;;5140157;27;20055;-76
2022/03/21 03:11:32;;;;;;;26.63;14.65;;;5.80;99.90;;;;;;5158101;27;20408;-76
2022/03/21 03:13:57;;;;;;;27.33;15.27;;;5.70;99.90;;;;;;5158470;27;20046;-76
2022/03/21 03:16:26;;;;;;;27.70;15.25;;;5.70;99.90;;;;;;5158400;27;20042;-76
2022/03/21 03:18:51;;;;;;;26.10;14.07;;;5.70;99.90;;;;;;5158357;27;20043;-76
2022/03/21 03:21:20;;;;;;;22.77;13.75;;;5.60;99.90;;;;;;5158288;27;20043;-76
2022/03/21 03:23:48;;;;;;;23.70;13.50;;;5.60;99.90;;;;;;5158106;27;20121;-75
2022/03/21 03:26:14;;;;;;;25.13;13.70;;;5.50;99.90;;;;;;5158259;27;20082;-75
2022/03/21 03:28:39;;;;;;;24.48;13.68;;;5.40;99.90;;;;;;5158147;27;20085;-75
2022/03/21 03:31:05;;;;;;;30.02;14.68;;;5.30;99.90;;;;;;5158523;27;20095;-76
2022/03/21 03:33:31;;;;;;;26.30;14.48;;;5.30;99.90;;;;;;5158001;27;20049;-75
2022/03/21 03:35:57;;;;;;;26.65;14.35;;;5.20;99.90;;;;;;5139475;27;20045;-76
2022/03/21 03:38:23;;;;;;;23.55;13.43;;;5.20;99.90;;;;;;5157578;27;20038;-76
2022/03/21 03:40:49;;;;;;;23.73;13.50;;;5.10;99.90;;;;;;5140365;27;20434;-76
2022/03/21 03:43:15;;;;;;;25.20;13.70;;;5.00;99.90;;;;;;5157874;27;20082;-75
2022/03/21 03:45:42;;;;;;;27.23;14.23;;;4.90;99.90;;;;;;5157857;27;20191;-76
2022/03/21 03:48:08;;;;;;;24.27;13.82;;;4.90;99.90;;;;;;5157798;27;20047;-76
2022/03/21 03:50:34;;;;;;;24.08;13.55;;;5.00;99.90;;;;;;5139243;27;20039;-75
2022/03/21 03:52:59;;;;;;;21.95;12.80;;;4.70;99.90;;;;;;5157630;27;20039;-76
2022/03/21 03:55:26;;;;;;;23.45;13.13;;;4.70;99.90;;;;;;5139881;27;20054;-76
2022/03/21 03:57:52;;;;;;;23.20;13.18;;;4.60;99.90;;;;;;5157950;27;20050;-76
2022/03/21 04:00:19;;;;;;;24.63;13.30;;;4.50;99.90;;;;;;5157432;27;20049;-75
2022/03/21 04:05:29;;;;;;;25.23;13.68;;;4.40;99.90;;;;;;5157502;27;20043;-75
2022/03/21 04:07:55;;;;;;;24.83;12.85;;;4.40;99.90;;;;;;5157421;27;20440;-75
2022/03/21 04:10:21;;;;;;;21.13;12.18;;;4.30;99.90;;;;;;5157328;27;20094;-75
2022/03/21 04:12:51;;;;;;;29.17;13.65;;;4.30;99.90;;;;;;5139247;27;20077;-75
2022/03/21 04:15:17;;;;;;;23.30;13.50;;;4.20;99.90;;;;;;5157220;27;20045;-75
2022/03/21 04:17:44;;;;;;;26.50;13.80;;;4.20;99.90;;;;;;5157302;27;20397;-75
2022/03/21 04:20:11;;;;;;;22.63;12.80;;;4.10;99.90;;;;;;5156836;27;20486;-75
2022/03/21 04:22:36;;;;;;;20.80;12.20;;;4.10;99.90;;;;;;5157114;27;20099;-75
2022/03/21 04:25:07;;;;;;;25.85;13.57;;;4.00;99.90;;;;;;5157068;27;20042;-75
2022/03/21 04:27:33;;;;;;;23.33;12.57;;;3.90;99.90;;;;;;5157294;27;20043;-76
2022/03/21 04:30:00;;;;;;;26.33;12.83;;;3.90;99.90;;;;;;5157005;27;20042;-76
2022/03/21 04:32:26;;;;;;;23.95;12.95;;;3.90;99.90;;;;;;5156827;27;20047;-76
2022/03/21 04:34:52;;;;;;;22.95;13.15;;;3.90;99.90;;;;;;5156754;27;20072;-76
2022/03/21 04:37:18;;;;;;;24.83;13.48;;;3.80;99.90;;;;;;5138421;27;20039;-75
2022/03/21 04:39:43;;;;;;;21.92;12.23;;;3.80;99.90;;;;;;5156849;27;20059;-75
2022/03/21 04:42:09;;;;;;;22.58;12.73;;;3.80;99.90;;;;;;5156804;27;20486;-75
2022/03/21 04:44:34;;;;;;;22.60;12.18;;;3.90;99.90;;;;;;5156714;27;20035;-75
2022/03/21 04:47:00;;;;;;;24.35;11.98;;;3.70;99.90;;;;;;5156728;27;20086;-75
2022/03/21 04:49:26;;;;;;;25.02;12.70;;;3.60;99.90;;;;;;5155473;27;20112;-75
2022/03/21 04:51:51;;;;;;;21.02;11.85;;;3.60;99.90;;;;;;5156615;27;20076;-75
2022/03/21 04:54:17;;;;;;;25.67;12.50;;;3.50;99.90;;;;;;5156827;27;20039;-75
2022/03/21 04:56:43;;;;;;;22.13;12.20;;;3.50;99.90;;;;;;5156264;27;20042;-75
2022/03/21 04:59:09;;;;;;;22.38;13.15;;;3.50;99.90;;;;;;5156621;27;20130;-75
2022/03/21 05:01:36;;;;;;;21.50;12.18;;;3.40;99.90;;;;;;5156329;27;20043;-75
2022/03/21 05:04:02;;;;;;;18.95;11.05;;;3.30;99.90;;;;;;5137951;27;20086;-76
2022/03/21 05:06:27;;;;;;;22.48;11.82;;;3.20;99.90;;;;;;5156310;27;20035;-75
2022/03/21 05:08:53;;;;;;;20.23;11.30;;;3.20;99.90;;;;;;5156080;27;20099;-75
2022/03/21 05:11:18;;;;;;;25.00;12.55;;;3.20;99.90;;;;;;5156168;27;20142;-75
2022/03/21 05:13:44;;;;;;;20.17;11.48;;;3.10;99.90;;;;;;5156112;27;20082;-75
2022/03/21 05:16:10;;;;;;;24.83;13.63;;;3.00;99.90;;;;;;5137270;27;20050;-75
2022/03/21 05:18:35;;;;;;;24.05;12.75;;;3.00;99.90;;;;;;5155649;27;20042;-75
2022/03/21 05:21:05;;;;;;;19.40;11.30;;;3.00;99.90;;;;;;5155993;27;20046;-76
2022/03/21 05:31:43;;;;;;;21.08;11.25;;;2.80;99.90;;;;;;5155949;27;20086;-75
2022/03/21 05:36:54;;;;;;;21.65;12.35;;;2.70;99.90;;;;;;5155718;27;20047;-75
2022/03/21 05:39:21;;;;;;;25.92;12.30;;;2.80;99.90;;;;;;5155635;27;20053;-75
2022/03/21 05:41:48;;;;;;;22.50;12.35;;;2.70;99.90;;;;;;5155528;27;20537;-75
2022/03/21 05:44:14;;;;;;;22.80;12.80;;;2.80;99.90;;;;;;5155591;27;20507;-75
2022/03/21 05:46:39;;;;;;;22.65;12.35;;;2.70;99.90;;;;;;5155038;27;20042;-76
2022/03/21 05:49:05;;;;;;;22.35;12.18;;;2.70;99.90;;;;;;5155551;27;20583;-76
2022/03/21 05:51:32;;;;;;;24.40;12.35;;;2.70;99.90;;;;;;5155104;27;20501;-76
2022/03/21 05:54:05;;;;;;;19.95;11.38;;;2.70;99.90;;;;;;5137225;27;20061;-76
2022/03/21 05:56:31;;;;;;;22.35;12.93;;;2.60;99.90;;;;;;5155389;27;20073;-75
2022/03/21 06:00:19;;;;;;;19.00;11.00;;;2.60;99.90;;;;;;5137245;27;20575;-75
2022/03/21 06:01:43;;;;;;;25.23;11.93;;;2.60;99.90;;;;;;5155069;27;20296;-75
2022/03/21 06:04:08;;;;;;;25.60;12.13;;;2.60;99.90;;;;;;5155201;27;20051;-75
2022/03/21 06:06:34;;;;;;;25.13;13.50;;;2.50;99.90;;;;;;5155319;27;20031;-75
2022/03/21 06:09:00;;;;;;;22.23;12.45;;;2.60;99.90;;;;;;5155283;27;20046;-75
2022/03/21 06:11:26;;;;;;;23.08;12.15;;;2.50;99.90;;;;;;5133293;28;20051;-75
2022/03/21 06:13:51;;;;;;;24.95;12.52;;;2.60;99.90;;;;;;5134907;28;20138;-76
2022/03/21 06:16:17;;;;;;;21.55;12.73;;;2.60;99.90;;;;;;5134633;28;20130;-77
2022/03/21 06:18:43;;;;;;;22.75;12.85;;;2.60;99.90;;;;;;5133536;28;20043;-75
2022/03/21 06:21:09;;;;;;;23.50;12.25;;;2.60;99.90;;;;;;5134649;28;20047;-75
2022/03/21 06:23:35;;;;;;;27.40;12.50;;;2.60;99.90;;;;;;5134612;28;20039;-76
2022/03/21 06:26:02;;;;;;;23.55;13.32;;;2.60;99.90;;;;;;5116438;28;20051;-76
2022/03/21 06:28:28;;;;;;;22.30;12.18;;;2.70;99.90;;;;;;5132874;28;20064;-75
2022/03/21 06:30:54;;;;;;;26.55;13.57;;;2.70;99.90;;;;;;5134434;28;20047;-74
2022/03/21 06:33:23;;;;;;;23.48;12.00;;;2.70;99.90;;;;;;5134388;28;20550;-75
2022/03/21 06:35:49;;;;;;;22.42;12.18;;;2.80;99.90;;;;;;5134358;27;20049;-76
2022/03/21 06:38:14;;;;;;;23.35;12.98;;;2.80;99.90;;;;;;5133984;28;20047;-76
2022/03/21 06:40:42;;;;;;;23.58;12.85;;;2.90;99.90;;;;;;5134619;28;20043;-74
2022/03/21 06:43:09;;;;;;;28.58;13.68;;;2.90;99.90;;;;;;5134353;28;20047;-75
2022/03/21 06:45:34;;;;;;;27.55;13.65;;;2.90;99.90;;;;;;5134314;28;20118;-75
2022/03/21 06:48:00;;;;;;;29.25;14.30;;;3.00;99.90;;;;;;5133386;28;20493;-76
2022/03/21 06:50:26;;;;;;;25.70;13.77;;;3.00;99.90;;;;;;5133331;28;20132;-75
2022/03/21 06:52:52;;;;;;;31.80;15.02;;;3.10;99.90;;;;;;5134179;28;20131;-75
2022/03/21 06:55:19;;;;;;;26.58;14.32;;;3.20;99.90;;;;;;5134393;28;20384;-76
2022/03/21 06:57:45;;;;;;;;;;;3.20;99.90;;;;;;5133354;28;20043;-76
2022/03/21 07:00:13;;;;;;;31.10;15.68;;;3.30;99.90;;;;;;5134357;28;19946;-71
2022/03/21 07:02:39;;;;;;;40.60;18.40;;;3.40;99.90;;;;;;5134089;28;20047;-75
2022/03/21 07:05:07;;;;;;;31.70;16.30;;;3.50;99.90;;;;;;5134033;28;20427;-74
2022/03/21 07:07:33;;;;;;;40.80;20.75;;;3.60;99.90;;;;;;5133996;28;20043;-76
2022/03/21 07:09:59;;;;;;;41.95;21.30;;;3.80;99.90;;;;;;5117220;27;20075;-78
2022/03/21 07:12:26;;;;;;;45.38;21.20;;;3.90;99.90;;;;;;5155082;27;20062;-76
2022/03/21 07:14:52;;;;;;;52.78;23.70;;;3.90;99.90;;;;;;5123070;27;20090;-78
2022/03/21 07:17:21;;;;;;;50.97;22.88;;;4.20;99.90;;;;;;5158257;27;20070;-78
2022/03/21 07:19:46;;;;;;;50.53;23.60;;;4.40;99.90;;;;;;5158252;27;20435;-77
2022/03/21 07:22:13;;;;;;;47.80;22.45;;;4.60;99.90;;;;;;5139847;27;20121;-76
2022/03/21 07:24:38;;;;;;;52.97;22.45;;;4.70;99.90;;;;;;5158184;27;20081;-76
2022/03/21 07:27:04;;;;;;;43.25;22.05;;;5.00;99.90;;;;;;5158189;27;20080;-76
2022/03/21 07:29:30;;;;;;;39.30;21.52;;;5.10;99.90;;;;;;5158248;27;20039;-77
2022/03/21 07:31:57;;;;;;;41.15;19.65;;;5.30;99.90;;;;;;5139641;27;20078;-77
2022/03/21 07:34:22;;;;;;;41.00;18.60;;;5.40;99.90;;;;;;5157983;27;20043;-77
2022/03/21 07:36:49;;;;;;;39.95;19.98;;;5.60;99.90;;;;;;5157900;27;20466;-77
2022/03/21 07:39:15;;;;;;;31.97;18.03;;;5.80;99.90;;;;;;5158024;27;20043;-77
2022/03/21 07:41:40;;;;;;;33.53;18.73;;;5.90;99.90;;;;;;5139856;27;20103;-76
2022/03/21 07:44:07;;;;;;;30.88;17.17;;;6.10;99.90;;;;;;5139334;27;20035;-76
2022/03/21 07:49:17;;;;;;;25.70;15.85;;;6.50;99.90;;;;;;5157792;27;20414;-77
2022/03/21 07:51:43;;;;;;;28.07;16.20;;;6.70;99.90;;;;;;5158209;27;20050;-76
2022/03/21 07:54:10;;;;;;;25.60;14.90;;;6.80;99.90;;;;;;5139479;27;20041;-78
2022/03/21 07:56:37;;;;;;;27.48;15.07;;;6.90;99.90;;;;;;5157295;27;20486;-76
2022/03/21 07:59:03;;;;;;;27.50;13.85;;;7.10;99.90;;;;;;5156694;27;20074;-76
2022/03/21 08:01:30;;;;;;;26.45;15.32;;;7.20;99.90;;;;;;5156676;27;20035;-76
2022/03/21 08:04:00;;;;;;;23.13;12.70;;;7.30;99.90;;;;;;5156971;27;20117;-74
2022/03/21 08:06:26;;;;;;;23.15;13.23;;;7.50;99.90;;;;;;5157494;27;20103;-75
2022/03/21 08:08:54;;;;;;;23.07;13.53;;;7.60;99.90;;;;;;5157441;27;20083;-75
2022/03/21 08:11:21;;;;;;;20.48;12.60;;;7.70;99.90;;;;;;5138018;27;20050;-75
2022/03/21 08:13:49;;;;;;;21.48;12.60;;;7.80;99.90;;;;;;5157354;27;20043;-75
2022/03/21 08:16:19;;;;;;;21.83;12.15;;;8.00;99.90;;;;;;5157236;27;20046;-76
2022/03/21 08:18:47;;;;;;;21.02;12.32;;;8.10;99.90;;;;;;5157656;27;20069;-76
2022/03/21 08:21:13;;;;;;;23.55;12.20;;;8.20;99.90;;;;;;5157203;27;20046;-76
2022/03/21 08:23:38;;;;;;;20.48;12.45;;;8.30;99.90;;;;;;5156963;27;20498;-76
2022/03/21 08:26:04;;;;;;;19.60;11.38;;;8.40;99.90;;;;;;5156449;27;20489;-76
2022/03/21 08:28:30;;;;;;;20.20;11.80;;;8.50;99.90;;;;;;5157069;27;20536;-76
2022/03/21 08:30:55;;;;;;;25.25;12.38;;;8.60;99.90;;;;;;5138658;27;20054;-77
2022/03/21 08:33:21;;;;;;;27.15;11.73;;;8.80;99.90;;;;;;5156376;27;20129;-76
2022/03/21 08:35:46;;;;;;;22.80;12.10;;;8.90;99.90;;;;;;5156730;27;20077;-73
2022/03/21 08:38:12;;;;;;;20.55;12.52;;;9.00;99.90;;;;;;5138383;27;20058;-76
2022/03/21 08:40:38;;;;;;;21.48;11.80;;;9.10;99.90;;;;;;5156724;27;20122;-76
2022/03/21 08:43:06;;;;;;;18.17;11.38;;;9.20;99.90;;;;;;5156712;27;20074;-75
2022/03/21 08:45:33;;;;;;;21.65;12.05;;;9.20;99.90;;;;;;5156571;27;20086;-76
2022/03/21 08:47:58;;;;;;;17.98;11.07;;;9.30;99.90;;;;;;5156356;27;20047;-76
2022/03/21 08:50:24;;;;;;;21.63;11.20;;;9.40;99.90;;;;;;5156584;27;20054;-75
2022/03/21 08:52:50;;;;;;;27.77;11.65;;;9.50;99.90;;;;;;5138089;27;20043;-77
2022/03/21 08:55:15;;;;;;;20.95;11.15;;;9.60;99.90;;;;;;5138175;27;20167;-76
2022/03/21 08:57:41;;;;;;;17.17;10.50;;;9.60;99.90;;;;;;5156420;27;20161;-77
2022/03/21 09:00:09;;;;;;;17.55;10.90;;;9.70;99.90;;;;;;5156382;27;20049;-76
2022/03/21 09:02:36;;;;;;;19.33;11.50;;;9.80;99.90;;;;;;5157030;27;20068;-77
2022/03/21 09:05:04;;;;;;;25.60;11.27;;;9.80;99.90;;;;;;5156308;27;20047;-75
2022/03/21 09:07:29;;;;;;;22.38;10.60;;;9.90;99.90;;;;;;5156193;27;20043;-75
2022/03/21 09:09:55;;;;;;;18.00;10.90;;;10.00;99.90;;;;;;5156214;27;20559;-75
2022/03/21 09:12:21;;;;;;;20.83;11.82;;;10.10;99.90;;;;;;5156320;27;20050;-75
2022/03/21 09:14:46;;;;;;;20.10;11.40;;;10.20;99.90;;;;;;5155940;27;20046;-76
2022/03/21 09:17:13;;;;;;;22.27;12.23;;;10.20;99.90;;;;;;5156010;27;20043;-77
2022/03/21 09:19:39;;;;;;;20.95;12.30;;;10.30;99.90;;;;;;5156495;27;20121;-76
2022/03/21 09:22:05;;;;;;;18.98;12.15;;;10.40;99.90;;;;;;5156003;27;20121;-77
2022/03/21 09:24:30;;;;;;;22.65;11.43;;;10.50;99.90;;;;;;5137663;27;20566;-77
2022/03/21 09:26:56;;;;;;;21.50;12.63;;;10.60;99.90;;;;;;5156599;27;20054;-77
2022/03/21 09:29:22;;;;;;;20.15;11.82;;;10.70;99.90;;;;;;5155629;27;20047;-75
2022/03/21 09:31:48;;;;;;;20.30;13.32;;;10.80;99.90;;;;;;5155814;27;20089;-75
2022/03/21 09:34:16;;;;;;;22.08;13.45;;;10.90;99.90;;;;;;5156184;27;20049;-74
2022/03/21 09:36:42;;;;;;;22.77;13.30;;;11.00;99.90;;;;;;5155302;27;20038;-76
2022/03/21 09:39:12;;;;;;;24.83;13.47;;;11.10;99.90;;;;;;5155392;27;20478;-77
2022/03/21 09:41:38;;;;;;;24.13;13.73;;;11.10;99.90;;;;;;5155594;27;20046;-76
2022/03/21 09:44:09;;;;;;;23.98;13.50;;;11.40;99.90;;;;;;5155587;27;20066;-76
2022/03/21 09:46:37;;;;;;;23.67;14.63;;;11.20;99.90;;;;;;5155704;27;20121;-76
2022/03/21 09:49:05;;;;;;;27.08;15.13;;;11.30;99.90;;;;;;5155250;27;20436;-76
2022/03/21 09:51:32;;;;;;;22.63;14.13;;;11.40;99.90;;;;;;5155408;27;20050;-76
2022/03/21 09:53:59;;;;;;;24.88;15.10;;;11.50;99.90;;;;;;5155489;27;20424;-76
2022/03/21 09:56:26;;;;;;;22.60;14.75;;;11.60;99.90;;;;;;5155396;27;20035;-76
2022/03/21 09:59:01;;;;;;;22.77;14.30;;;11.70;99.90;;;;;;5155027;27;20134;-76
2022/03/21 10:01:32;;;;;;;29.58;15.43;;;11.80;99.90;;;;;;5155847;27;20412;-76
2022/03/21 10:03:59;;;;;;;27.13;15.07;;;11.90;99.90;;;;;;5155388;27;20035;-76
2022/03/21 10:06:33;;;;;;;28.15;15.07;;;11.90;99.90;;;;;;5155555;27;20039;-76
2022/03/21 10:09:17;;;;;;;27.83;15.90;;;12.00;99.90;;;;;;5154952;27;20549;-76
2022/03/21 10:11:51;;;;;;;30.00;16.02;;;12.10;99.90;;;;;;5135381;27;20457;-75
2022/03/21 10:14:32;;;;;;;30.65;16.50;;;12.20;99.90;;;;;;5154556;27;20069;-76
2022/03/21 10:17:06;;;;;;;24.75;14.90;;;12.30;99.90;;;;;;5155078;27;20054;-75
2022/03/21 10:19:52;;;;;;;26.90;15.70;;;12.40;99.90;;;;;;5155169;27;20129;-75
2022/03/21 10:22:34;;;;;;;25.67;15.75;;;12.40;99.90;;;;;;5155113;27;20043;-76
2022/03/21 10:25:08;;;;;;;27.40;15.77;;;12.50;99.90;;;;;;5155084;27;20038;-76
2022/03/21 10:27:39;;;;;;;28.38;15.20;;;12.50;99.90;;;;;;5155082;27;20043;-75
2022/03/21 10:30:15;;;;;;;25.65;15.00;;;12.60;99.90;;;;;;5154971;27;20074;-76
2022/03/21 10:32:58;;;;;;;24.92;15.25;;;12.60;99.90;;;;;;5155105;27;20046;-75
2022/03/21 10:35:30;;;;;;;29.95;16.25;;;12.70;99.90;;;;;;5154828;27;20039;-76
2022/03/21 10:38:01;;;;;;;27.23;15.27;;;12.70;99.90;;;;;;5154768;27;20045;-76
2022/03/21 10:40:28;;;;;;;26.23;15.15;;;12.80;99.90;;;;;;5154969;27;20043;-76
2022/03/21 10:43:05;;;;;;;28.08;16.23;;;12.80;99.90;;;;;;5154959;27;20129;-75
2022/03/21 10:45:49;;;;;;;27.77;15.65;;;12.90;99.90;;;;;;5155481;27;20053;-76
2022/03/21 10:48:19;;;;;;;27.40;14.63;;;13.00;99.90;;;;;;5138035;27;20039;-75
2022/03/21 10:50:47;;;;;;;26.70;16.30;;;13.10;99.90;;;;;;5158703;27;20118;-76
2022/03/21 10:53:14;;;;;;;27.92;16.30;;;13.10;99.90;;;;;;5158578;27;20078;-76
2022/03/21 10:55:42;;;;;;;26.08;15.13;;;13.10;99.90;;;;;;5158777;27;20079;-76
2022/03/21 10:58:08;;;;;;;27.25;15.35;;;13.10;99.90;;;;;;5140322;27;20069;-76
2022/03/21 11:00:34;;;;;;;25.83;13.97;;;13.20;99.90;;;;;;5158832;27;20043;-77
2022/03/21 11:03:07;;;;;;;30.52;16.17;;;13.20;99.90;;;;;;5158711;27;20509;-77
2022/03/21 11:05:37;;;;;;;25.27;15.10;;;13.20;99.90;;;;;;5158678;27;20047;-76
2022/03/21 11:08:11;;;;;;;24.35;15.73;;;13.40;99.90;;;;;;5158316;27;20482;-77
2022/03/21 11:10:38;;;;;;;26.55;15.25;;;13.60;99.90;;;;;;5158343;27;20058;-77
2022/03/21 11:13:04;;;;;;;;;;;13.60;99.90;;;;;;5158664;27;20050;-76
2022/03/21 11:15:31;;;;;;;23.35;14.43;;;13.60;99.90;;;;;;5157931;27;20007;-75
2022/03/21 11:17:57;;;;;;;26.75;15.20;;;13.70;99.90;;;;;;5157960;27;20054;-75
2022/03/21 11:20:24;;;;;;;22.47;14.80;;;13.80;99.90;;;;;;5157511;27;20038;-76
2022/03/21 11:22:52;;;;;;;;;;;13.90;99.90;;;;;;5140398;27;20050;-76
2022/03/21 11:25:18;;;;;;;28.52;16.38;;;14.00;99.90;;;;;;5158313;27;19961;-77
2022/03/21 11:28:01;;;;;;;27.83;15.97;;;14.00;99.90;;;;;;5158264;27;20038;-75
2022/03/21 11:30:48;;;;;;;27.50;15.82;;;14.10;99.90;;;;;;5158207;27;20068;-76
2022/03/21 11:33:35;;;;;;;26.13;15.63;;;14.20;99.90;;;;;;5158593;27;20047;-77
2022/03/21 11:36:06;;;;;;;30.38;16.48;;;14.20;99.90;;;;;;5158329;27;20086;-77
2022/03/21 11:38:47;;;;;;;27.48;15.70;;;14.20;99.90;;;;;;5158322;27;20126;-77
2022/03/21 11:41:14;;;;;;;26.40;16.50;;;14.30;99.90;;;;;;5157869;27;20107;-77
2022/03/21 11:43:42;;;;;;;29.23;16.70;;;14.40;99.90;;;;;;5158298;27;20046;-76
2022/03/21 11:46:30;;;;;;;23.75;16.35;;;14.40;99.90;;;;;;5139716;27;20046;-77
2022/03/21 11:49:04;;;;;;;26.13;16.70;;;14.50;99.90;;;;;;5157906;27;20038;-77
2022/03/21 11:51:38;;;;;;;26.73;16.92;;;14.50;99.90;;;;;;5157903;27;20046;-77
2022/03/21 11:54:07;;;;;;;27.95;16.63;;;14.60;99.90;;;;;;5157681;27;20075;-75
2022/03/21 11:56:44;;;;;;;23.85;16.38;;;14.70;99.90;;;;;;5157569;27;20050;-76
2022/03/21 11:59:28;;;;;;;;;;;14.80;99.90;;;;;;5157879;27;20043;-77
2022/03/21 12:01:54;;;;;;;26.05;15.25;;;14.90;99.90;;;;;;5157506;27;20418;-76
2022/03/21 12:04:27;;;;;;;30.20;16.50;;;14.80;99.90;;;;;;5157442;27;20039;-76
2022/03/21 12:06:58;;;;;;;26.92;16.63;;;14.80;99.90;;;;;;5157466;27;20099;-76
2022/03/21 12:09:24;;;;;;;26.77;16.48;;;14.80;99.90;;;;;;5139086;27;20428;-76
2022/03/21 12:11:50;;;;;;;23.87;16.87;;;14.90;99.90;;;;;;5157467;27;20054;-76
2022/03/21 12:15:04;;;;;;;30.25;17.27;;;15.00;99.90;;;;;;5156651;27;20050;-77
2022/03/21 12:17:05;;;;;;;23.92;15.82;;;15.10;99.90;;;;;;5136732;27;20074;-78
2022/03/21 12:22:29;;;;;;;25.67;15.98;;;15.00;99.90;;;;;;5138952;27;20093;-75
2022/03/21 12:25:15;;;;;;;27.38;16.00;;;15.00;99.90;;;;;;5157142;27;20082;-76
2022/03/21 12:27:58;;;;;;;25.15;14.70;;;14.80;99.90;;;;;;5156951;27;20049;-77
2022/03/21 12:30:23;;;;;;;24.13;14.52;;;14.80;99.90;;;;;;5156832;27;20046;-75
2022/03/21 12:32:59;;;;;;;25.17;16.33;;;14.70;99.90;;;;;;5156981;27;20463;-76
2022/03/21 12:35:31;;;;;;;28.73;16.67;;;14.80;99.90;;;;;;5156838;27;20038;-76
2022/03/21 12:38:00;;;;;;;28.38;16.02;;;14.90;99.90;;;;;;5156807;27;20103;-76
2022/03/21 12:40:25;;;;;;;26.23;15.68;;;15.00;99.90;;;;;;5156293;27;20042;-75
2022/03/21 12:42:51;;;;;;;25.50;15.87;;;15.10;99.90;;;;;;5156760;27;20049;-77
2022/03/21 12:45:20;;;;;;;27.55;16.42;;;15.40;99.90;;;;;;5156704;27;20037;-78
2022/03/21 12:47:47;;;;;;;19.20;12.55;;;15.30;99.90;;;;;;5156354;27;20501;-78
2022/03/21 12:50:24;;;;;;;24.33;15.02;;;15.40;99.90;;;;;;5156512;27;20042;-77
2022/03/21 12:53:01;;;;;;;22.33;15.00;;;15.60;99.90;;;;;;5156668;27;20039;-76
2022/03/21 12:55:28;;;;;;;25.65;15.73;;;15.70;99.90;;;;;;5156409;27;20039;-77
2022/03/21 12:57:59;;;;;;;27.40;15.35;;;15.60;99.90;;;;;;5156667;27;20141;-76
2022/03/21 13:00:27;;;;;;;28.13;16.48;;;15.50;99.90;;;;;;5156465;27;20102;-76
2022/03/21 13:02:56;;;;;;;26.98;15.93;;;15.50;99.90;;;;;;5156365;27;20042;-76